METAR stanice u blizini

 

LYBE - Beograd / Surčin, Srbija
Ažurirano: 12/06/2024 22:30
Oblačno
Oblačno
 Pravac vetra ZSZ
Vetar: ZSZ 17 km/h
Temperatura: 18°C
Tačka rose: 16°C
Vlažnost: 88%
Pritisak: 1016 hPa
Oblaci: Oblačno
Vidljivost: 10 km
Cloud details: Oblačno 366 m
2024/06/12 20:30 LYBE 122030Z 29009KT 9999 OVC012 18/16 Q1016 NOSIG
LYBT - Beograd / Batajnica, Srbija
Ažurirano: 12/06/2024 22:30
Mostly Cloudy
Mostly Cloudy
 Pravac vetra ZSZ
Vetar: ZSZ 13 km/h
Temperatura: 18°C
Tačka rose: 17°C
Vlažnost: 94%
Pritisak: 1016 hPa
Oblaci: Mostly Cloudy
Vidljivost: 10 km
Cloud details: Mostly Cloudy 335 m
2024/06/12 20:30 LYBT 122030Z 29007KT 9999 BKN011 18/17 Q1016
LYVR - Vršac, Srbija
Ažurirano: 12/06/2024 22:30
Oblačno
Oblačno
 Pravac vetra varies
Vetar: varies 2 km/h
Temperatura: 19°C
Tačka rose: 18°C
Vlažnost: 94%
Pritisak: 1015 hPa
Oblaci: Oblačno
Vidljivost: 10 km
Cloud details: Partly Cloudy 274 m
Mostly Cloudy 1433 m
Oblačno 3048 m
2024/06/12 20:30 LYVR 122030Z AUTO VRB01KT 9999 SCT009/// BKN047/// OVC100/// 19/18 Q1015
 
LYKV - Lađevci, Srbija
Ažurirano: 12/06/2024 22:30
Mostly Cloudy
Mostly Cloudy
 Pravac vetra ZSZ
Vetar: ZSZ 17 km/h
Temperatura: 18°C
Tačka rose: 16°C
Vlažnost: 88%
Pritisak: 1016 hPa
Oblaci: Mostly Cloudy
Vidljivost: 10 km
Cloud details: Partly Cloudy 366 m
Mostly Cloudy 914 m
2024/06/12 20:30 LYKV 122030Z 30009KT 260V340 9999 SCT012 BKN030 18/16 Q1016 TEMPO BKN012 BKN030
LYNI - Niš, Srbija
Ažurirano: 12/06/2024 22:30
Vedro
Vedro
 Pravac vetra SZ
Vetar: SZ 19 km/h
Temperatura: 22°C
Tačka rose: 16°C
Vlažnost: 69%
Pritisak: 1014 hPa
Pregled: Vedro
Vidljivost: greater than 10 km
2024/06/12 20:30 LYNI 122030Z 32010KT 290V350 CAVOK 22/16 Q1014 NOSIG
BKPR - Priština, Srbija
Ažurirano: 12/06/2024 22:30
Vedro
Vedro
 Pravac vetra SSI
Vetar: SSI 7 km/h
Temperatura: 21°C
Tačka rose: 8°C
Vlažnost: 43%
Pritisak: 1015 hPa
Pregled: Vedro
Vidljivost: greater than 10 km
2024/06/12 20:30 BKPR 122030Z 03004KT CAVOK 21/08 Q1015 NOSIG
 
LHPP - Pecs / Pogany, Hungary
Ažurirano: 12/06/2024 22:15
Few Clouds
Few Clouds
 Pravac vetra SZ
Vetar: SZ 6 km/h
Temperatura: 13°C
Tačka rose: 11°C
Vlažnost: 88%
Pritisak: 1017 hPa
Oblaci: Few Clouds
Vidljivost: 10 km
Cloud details: Few Clouds 1006 m
2024/06/12 20:15 LHPP 122015Z AUTO 31003KT 270V330 9999 FEW033 13/11 Q1017
LHUD - Szeged, Hungary
Ažurirano: 04/07/2019 01:45
NOT Current
Vedro
Vedro
 Pravac vetra S
Vetar: S 7 km/h
Temperatura: 18°C
Tačka rose: 13°C
Vlažnost: 73%
Pritisak: 1019 hPa
Pregled: Vedro
Vidljivost: greater than 10 km
2019/07/03 23:45 LHUD 032345Z 35004KT CAVOK 18/13 Q1019
LRTR - Timisoara, Romania
Ažurirano: 12/06/2024 22:30
Oblačno
Oblačno
 Pravac vetra Z
Vetar: Z 7 km/h
Temperatura: 18°C
Tačka rose: 18°C
Vlažnost: 100%
Pritisak: 1014 hPa
Oblaci: Oblačno
Vidljivost: 10 km
Cloud details: Oblačno 914 m
2024/06/12 20:30 LRTR 122030Z 28004KT 9999 OVC030 18/18 Q1014
 
LRCV - Craiova, Romania
Ažurirano: 12/06/2024 22:30
Vedro
Vedro
 Pravac vetra ZSZ
Vetar: ZSZ 9 km/h
Temperatura: 23°C
Tačka rose: 15°C
Vlažnost: 61%
Pritisak: 1012 hPa
Pregled: Vedro
Vidljivost: greater than 10 km
2024/06/12 20:30 LRCV 122030Z 29005KT CAVOK 23/15 Q1012
LBSF - Sofia, Bulgaria
Ažurirano: 12/06/2024 22:30
Partly Cloudy
Partly Cloudy
 Pravac vetra ZSZ
Vetar: ZSZ 6 km/h
Temperatura: 21°C
Tačka rose: 14°C
Vlažnost: 64%
Pritisak: 1014 hPa
Oblaci: Partly Cloudy
Vidljivost: 10 km
2024/06/12 20:30 LBSF 122030Z AUTO 30003KT 9999 NSC 21/14 Q1014 NOSIG
LWSK - Skoplje, Makedonija
Ažurirano: 12/06/2024 22:20
Vedro
Vedro
 Pravac vetra SSI
Vetar: SSI 17 km/h
Temperatura: 26°C
Tačka rose: 13°C
Vlažnost: 45%
Pritisak: 1012 hPa
Pregled: Vedro
Vidljivost: greater than 10 km
2024/06/12 20:20 LWSK 122020Z 03009KT CAVOK 26/13 Q1012 NOSIG
 
LYPG - Podgorica, Crna Gora
Ažurirano: 12/06/2024 22:30
Few Clouds
Few Clouds
 Pravac vetra calm
Vetar: Tišina
Temperatura: 23°C
Tačka rose: 15°C
Vlažnost: 61%
Pritisak: 1013 hPa
Oblaci: Few Clouds
Vidljivost: 10 km
Cloud details: Few Clouds 1524 m
2024/06/12 20:30 LYPG 122030Z 00000KT 9999 FEW050 23/15 Q1013 NOSIG
LQSA - Sarajevo, Bosna i Hercegovina
Ažurirano: 12/06/2024 22:30
Mostly Cloudy
Mostly Cloudy
 Pravac vetra ZSZ
Vetar: ZSZ 11 km/h
Temperatura: 17°C
Tačka rose: 15°C
Vlažnost: 88%
Pritisak: 1016 hPa
Oblaci: Mostly Cloudy
Vidljivost: 10 km
Cloud details: Few Clouds 488 m
Mostly Cloudy 823 m
2024/06/12 20:30 LQSA 122030Z 30006KT 9999 FEW016 BKN027 17/15 Q1016 NOSIG
LDOS - Osijek, Hrvatksa
Ažurirano: 12/06/2024 22:30
Mostly Cloudy
Mostly Cloudy
 Pravac vetra ZSZ
Vetar: ZSZ 13 km/h
Temperatura: 16°C
Tačka rose: 13°C
Vlažnost: 83%
Pritisak: 1016 hPa
Oblaci: Mostly Cloudy
Vidljivost: 10 km
Cloud details: Mostly Cloudy 1006 m
2024/06/12 20:30 LDOS 122030Z 30007KT 9999 BKN033 16/13 Q1016